sensor_id;sensor_type;location;lat;lon;timestamp;pressure;altitude;pressure_sealevel;temperature;humidity
73860;BME280;62197;51.632;13.700;2023-02-11T00:00:51;101838.53;;;0.03;99.99
73860;BME280;62197;51.632;13.700;2023-02-11T00:03:20;101834.13;;;0.02;100.00
73860;BME280;62197;51.632;13.700;2023-02-11T00:05:45;101837.28;;;0.07;100.00
73860;BME280;62197;51.632;13.700;2023-02-11T00:08:11;101827.44;;;0.06;100.00
73860;BME280;62197;51.632;13.700;2023-02-11T00:10:41;101810.28;;;0.15;100.00
73860;BME280;62197;51.632;13.700;2023-02-11T00:13:06;101798.00;;;0.11;100.00
73860;BME280;62197;51.632;13.700;2023-02-11T00:15:32;101804.44;;;0.10;100.00
73860;BME280;62197;51.632;13.700;2023-02-11T00:17:57;101792.56;;;0.11;100.00
73860;BME280;62197;51.632;13.700;2023-02-11T00:20:22;101791.28;;;0.05;100.00
73860;BME280;62197;51.632;13.700;2023-02-11T00:22:48;101788.28;;;0.08;100.00
73860;BME280;62197;51.632;13.700;2023-02-11T00:25:13;101759.69;;;0.04;100.00
73860;BME280;62197;51.632;13.700;2023-02-11T00:27:38;101753.44;;;0.04;100.00
73860;BME280;62197;51.632;13.700;2023-02-11T00:30:04;101755.59;;;0.00;100.00
73860;BME280;62197;51.632;13.700;2023-02-11T00:32:30;101761.00;;;0.00;100.00
73860;BME280;62197;51.632;13.700;2023-02-11T00:34:55;101753.28;;;0.05;100.00
73860;BME280;62197;51.632;13.700;2023-02-11T00:37:21;101751.72;;;0.03;100.00
73860;BME280;62197;51.632;13.700;2023-02-11T00:39:46;101756.16;;;0.04;100.00
73860;BME280;62197;51.632;13.700;2023-02-11T00:42:13;101763.00;;;0.08;100.00
73860;BME280;62197;51.632;13.700;2023-02-11T00:44:39;101762.56;;;0.03;100.00
73860;BME280;62197;51.632;13.700;2023-02-11T00:47:04;101765.13;;;0.04;100.00
73860;BME280;62197;51.632;13.700;2023-02-11T00:49:30;101763.72;;;0.00;100.00
73860;BME280;62197;51.632;13.700;2023-02-11T00:51:55;101767.44;;;-0.01;100.00
73860;BME280;62197;51.632;13.700;2023-02-11T00:54:20;101764.56;;;0.00;100.00
73860;BME280;62197;51.632;13.700;2023-02-11T00:56:45;101744.84;;;-0.11;100.00
73860;BME280;62197;51.632;13.700;2023-02-11T00:59:11;101754.00;;;-0.03;100.00
73860;BME280;62197;51.632;13.700;2023-02-11T01:01:36;101745.16;;;-0.05;100.00
73860;BME280;62197;51.632;13.700;2023-02-11T01:04:02;101750.84;;;0.02;100.00
73860;BME280;62197;51.632;13.700;2023-02-11T01:06:27;101743.56;;;0.03;100.00
73860;BME280;62197;51.632;13.700;2023-02-11T01:08:52;101735.16;;;0.06;100.00
73860;BME280;62197;51.632;13.700;2023-02-11T01:11:19;101747.16;;;0.13;100.00
73860;BME280;62197;51.632;13.700;2023-02-11T01:13:45;101738.44;;;0.19;100.00
73860;BME280;62197;51.632;13.700;2023-02-11T01:16:11;101735.41;;;0.22;100.00
73860;BME280;62197;51.632;13.700;2023-02-11T01:18:37;101742.28;;;0.26;100.00
73860;BME280;62197;51.632;13.700;2023-02-11T01:21:02;101755.28;;;0.32;100.00
73860;BME280;62197;51.632;13.700;2023-02-11T01:23:28;101747.84;;;0.34;100.00
73860;BME280;62197;51.632;13.700;2023-02-11T01:25:53;101740.81;;;0.41;100.00
73860;BME280;62197;51.632;13.700;2023-02-11T01:28:22;101739.66;;;0.53;100.00
73860;BME280;62197;51.632;13.700;2023-02-11T01:30:48;101723.09;;;0.56;100.00
73860;BME280;62197;51.632;13.700;2023-02-11T01:33:13;101713.03;;;0.66;100.00
73860;BME280;62197;51.632;13.700;2023-02-11T01:35:39;101713.84;;;0.76;100.00
73860;BME280;62197;51.632;13.700;2023-02-11T01:38:16;101724.72;;;0.76;100.00
73860;BME280;62197;51.632;13.700;2023-02-11T01:40:49;101715.28;;;0.80;100.00
73860;BME280;62197;51.632;13.700;2023-02-11T01:43:15;101713.00;;;0.85;99.94
73860;BME280;62197;51.632;13.700;2023-02-11T01:45:47;101726.38;;;0.96;99.57
73860;BME280;62197;51.632;13.700;2023-02-11T01:48:23;101722.19;;;1.02;99.27
73860;BME280;62197;51.632;13.700;2023-02-11T01:50:54;101710.06;;;0.96;99.17
73860;BME280;62197;51.632;13.700;2023-02-11T01:53:21;101716.72;;;1.11;98.86
73860;BME280;62197;51.632;13.700;2023-02-11T01:56:05;101712.53;;;1.17;98.29
73860;BME280;62197;51.632;13.700;2023-02-11T01:58:52;101719.09;;;1.24;98.60
73860;BME280;62197;51.632;13.700;2023-02-11T02:01:24;101718.78;;;1.27;98.15
73860;BME280;62197;51.632;13.700;2023-02-11T02:03:53;101710.31;;;1.30;97.96
73860;BME280;62197;51.632;13.700;2023-02-11T02:06:48;101720.16;;;1.40;97.78
73860;BME280;62197;51.632;13.700;2023-02-11T02:09:26;101700.94;;;1.42;97.86
73860;BME280;62197;51.632;13.700;2023-02-11T02:11:52;101703.38;;;1.45;97.59
73860;BME280;62197;51.632;13.700;2023-02-11T02:14:18;101704.47;;;1.52;97.10
73860;BME280;62197;51.632;13.700;2023-02-11T02:16:43;101703.69;;;1.59;97.25
73860;BME280;62197;51.632;13.700;2023-02-11T02:27:54;101686.38;;;1.60;96.80
73860;BME280;62197;51.632;13.700;2023-02-11T02:30:50;101672.63;;;1.62;97.38
73860;BME280;62197;51.632;13.700;2023-02-11T02:34:01;101673.53;;;1.70;97.45
73860;BME280;62197;51.632;13.700;2023-02-11T02:36:37;101682.41;;;1.72;97.03
73860;BME280;62197;51.632;13.700;2023-02-11T02:39:10;101685.38;;;1.79;96.90
73860;BME280;62197;51.632;13.700;2023-02-11T02:41:38;101671.59;;;1.80;96.43
73860;BME280;62197;51.632;13.700;2023-02-11T02:44:06;101680.47;;;1.82;95.93
73860;BME280;62197;51.632;13.700;2023-02-11T02:46:32;101681.16;;;1.84;97.04
73860;BME280;62197;51.632;13.700;2023-02-11T02:48:58;101689.41;;;1.93;95.85
73860;BME280;62197;51.632;13.700;2023-02-11T02:51:58;101687.00;;;1.90;95.71
73860;BME280;62197;51.632;13.700;2023-02-11T02:55:00;101672.38;;;1.91;96.23
73860;BME280;62197;51.632;13.700;2023-02-11T02:57:36;101659.31;;;1.94;95.77
73860;BME280;62197;51.632;13.700;2023-02-11T03:00:36;101654.38;;;1.98;95.89
73860;BME280;62197;51.632;13.700;2023-02-11T03:03:57;101635.66;;;1.95;96.54
73860;BME280;62197;51.632;13.700;2023-02-11T03:06:05;101648.13;;;1.97;95.74
73860;BME280;62197;51.632;13.700;2023-02-11T03:08:40;101619.16;;;1.96;95.89
73860;BME280;62197;51.632;13.700;2023-02-11T03:11:08;101635.19;;;1.99;96.04
73860;BME280;62197;51.632;13.700;2023-02-11T03:13:37;101630.38;;;1.93;96.03
73860;BME280;62197;51.632;13.700;2023-02-11T03:16:10;101631.91;;;1.96;96.38
73860;BME280;62197;51.632;13.700;2023-02-11T03:18:40;101627.03;;;1.99;95.94
73860;BME280;62197;51.632;13.700;2023-02-11T03:21:07;101627.03;;;1.99;95.94
73860;BME280;62197;51.632;13.700;2023-02-11T03:23:52;101618.53;;;2.02;95.74
73860;BME280;62197;51.632;13.700;2023-02-11T03:26:30;101619.94;;;2.06;96.36
73860;BME280;62197;51.632;13.700;2023-02-11T03:29:00;101618.78;;;2.09;95.50
73860;BME280;62197;51.632;13.700;2023-02-11T03:31:46;101591.78;;;1.98;96.29
73860;BME280;62197;51.632;13.700;2023-02-11T03:34:17;101613.00;;;2.12;95.45
73860;BME280;62197;51.632;13.700;2023-02-11T03:36:59;101608.25;;;2.14;96.06
73860;BME280;62197;51.632;13.700;2023-02-11T03:39:31;101608.94;;;2.16;96.09
73860;BME280;62197;51.632;13.700;2023-02-11T03:41:59;101602.09;;;2.12;95.85
73860;BME280;62197;51.632;13.700;2023-02-11T03:44:29;101616.31;;;2.23;95.46
73860;BME280;62197;51.632;13.700;2023-02-11T03:46:57;101602.22;;;2.28;95.00
73860;BME280;62197;51.632;13.700;2023-02-11T03:49:24;101616.00;;;2.26;95.55
73860;BME280;62197;51.632;13.700;2023-02-11T03:51:52;101617.53;;;2.29;95.44
73860;BME280;62197;51.632;13.700;2023-02-11T03:54:24;101609.88;;;2.32;95.02
73860;BME280;62197;51.632;13.700;2023-02-11T03:56:53;101618.91;;;2.33;95.50
73860;BME280;62197;51.632;13.700;2023-02-11T03:59:20;101611.28;;;2.36;95.20
73860;BME280;62197;51.632;13.700;2023-02-11T04:01:45;101581.53;;;2.43;95.21
73860;BME280;62197;51.632;13.700;2023-02-11T04:04:10;101579.84;;;2.42;94.97
73860;BME280;62197;51.632;13.700;2023-02-11T04:06:36;101580.53;;;2.44;94.91
73860;BME280;62197;51.632;13.700;2023-02-11T04:09:02;101592.78;;;2.48;95.24
73860;BME280;62197;51.632;13.700;2023-02-11T04:11:27;101602.22;;;2.53;94.92
73860;BME280;62197;51.632;13.700;2023-02-11T04:13:53;101598.63;;;2.53;95.01
73860;BME280;62197;51.632;13.700;2023-02-11T04:16:18;101609.69;;;2.59;94.38
73860;BME280;62197;51.632;13.700;2023-02-11T04:18:43;101609.88;;;2.58;94.85
73860;BME280;62197;51.632;13.700;2023-02-11T04:21:09;101609.88;;;2.58;95.39
73860;BME280;62197;51.632;13.700;2023-02-11T04:23:34;101601.53;;;2.59;95.93
73860;BME280;62197;51.632;13.700;2023-02-11T04:25:59;101597.69;;;2.70;95.77
73860;BME280;62197;51.632;13.700;2023-02-11T04:28:25;101598.03;;;2.67;95.62
73860;BME280;62197;51.632;13.700;2023-02-11T04:30:53;101609.56;;;2.61;96.76
73860;BME280;62197;51.632;13.700;2023-02-11T04:33:19;101596.13;;;2.67;97.22
73860;BME280;62197;51.632;13.700;2023-02-11T04:35:44;101594.91;;;2.62;99.63
73860;BME280;62197;51.632;13.700;2023-02-11T04:38:09;101594.38;;;2.58;99.55
73860;BME280;62197;51.632;13.700;2023-02-11T04:40:35;101587.72;;;2.53;100.00
73860;BME280;62197;51.632;13.700;2023-02-11T04:43:00;101598.22;;;2.48;100.00
73860;BME280;62197;51.632;13.700;2023-02-11T04:45:25;101601.13;;;2.46;100.00
73860;BME280;62197;51.632;13.700;2023-02-11T04:47:51;101609.00;;;2.49;100.00
73860;BME280;62197;51.632;13.700;2023-02-11T04:50:16;101603.72;;;2.56;100.00
73860;BME280;62197;51.632;13.700;2023-02-11T04:52:41;101590.09;;;2.56;100.00
73860;BME280;62197;51.632;13.700;2023-02-11T04:55:07;101596.94;;;2.60;100.00
73860;BME280;62197;51.632;13.700;2023-02-11T04:57:32;101590.28;;;2.54;100.00
73860;BME280;62197;51.632;13.700;2023-02-11T04:59:58;101586.69;;;2.54;100.00
73860;BME280;62197;51.632;13.700;2023-02-11T05:02:23;101586.38;;;2.57;100.00
73860;BME280;62197;51.632;13.700;2023-02-11T05:04:48;101579.22;;;2.56;100.00
73860;BME280;62197;51.632;13.700;2023-02-11T05:07:14;101577.50;;;2.55;100.00
73860;BME280;62197;51.632;13.700;2023-02-11T05:09:39;101580.59;;;2.60;100.00
73860;BME280;62197;51.632;13.700;2023-02-11T05:12:04;101576.16;;;2.59;100.00
73860;BME280;62197;51.632;13.700;2023-02-11T05:14:30;101573.09;;;2.62;100.00
73860;BME280;62197;51.632;13.700;2023-02-11T05:16:55;101570.78;;;2.75;100.00
73860;BME280;62197;51.632;13.700;2023-02-11T05:19:20;101550.66;;;2.68;100.00
73860;BME280;62197;51.632;13.700;2023-02-11T05:21:46;101569.03;;;2.66;100.00
73860;BME280;62197;51.632;13.700;2023-02-11T05:24:11;101565.16;;;2.68;100.00
73860;BME280;62197;51.632;13.700;2023-02-11T05:26:36;101562.59;;;2.67;100.00
73860;BME280;62197;51.632;13.700;2023-02-11T05:29:02;101551.81;;;2.65;100.00
73860;BME280;62197;51.632;13.700;2023-02-11T05:31:27;101558.50;;;2.71;100.00
73860;BME280;62197;51.632;13.700;2023-02-11T05:33:52;101557.28;;;2.65;100.00
73860;BME280;62197;51.632;13.700;2023-02-11T05:36:18;101563.59;;;2.66;100.00
73860;BME280;62197;51.632;13.700;2023-02-11T05:38:43;101560.22;;;2.72;100.00
73860;BME280;62197;51.632;13.700;2023-02-11T05:41:09;101566.00;;;2.69;100.00
73860;BME280;62197;51.632;13.700;2023-02-11T05:43:35;101553.41;;;2.76;100.00
73860;BME280;62197;51.632;13.700;2023-02-11T05:46:04;101547.63;;;2.79;100.00
73860;BME280;62197;51.632;13.700;2023-02-11T05:48:30;101544.19;;;2.77;100.00
73860;BME280;62197;51.632;13.700;2023-02-11T05:50:56;101532.47;;;2.77;100.00
73860;BME280;62197;51.632;13.700;2023-02-11T05:53:21;101541.16;;;2.80;100.00
73860;BME280;62197;51.632;13.700;2023-02-11T05:55:46;101554.78;;;2.80;100.00
73860;BME280;62197;51.632;13.700;2023-02-11T05:58:12;101543.69;;;2.73;100.00
73860;BME280;62197;51.632;13.700;2023-02-11T06:00:37;101556.31;;;2.74;100.00
73860;BME280;62197;51.632;13.700;2023-02-11T06:03:03;101550.00;;;2.74;100.00
73860;BME280;62197;51.632;13.700;2023-02-11T06:05:28;101537.06;;;2.76;100.00
73860;BME280;62197;51.632;13.700;2023-02-11T06:07:54;101533.66;;;2.74;100.00
73860;BME280;62197;51.632;13.700;2023-02-11T06:10:19;101536.88;;;2.78;100.00
73860;BME280;62197;51.632;13.700;2023-02-11T06:12:44;101535.03;;;2.78;100.00
73860;BME280;62197;51.632;13.700;2023-02-11T06:15:10;101541.84;;;2.82;100.00
73860;BME280;62197;51.632;13.700;2023-02-11T06:17:35;101532.25;;;2.70;100.00
73860;BME280;62197;51.632;13.700;2023-02-11T06:20:03;101540.31;;;2.80;100.00
73860;BME280;62197;51.632;13.700;2023-02-11T06:22:29;101528.19;;;2.74;100.00
73860;BME280;62197;51.632;13.700;2023-02-11T06:24:54;101540.66;;;2.77;100.00
73860;BME280;62197;51.632;13.700;2023-02-11T06:27:19;101530.44;;;2.79;100.00
73860;BME280;62197;51.632;13.700;2023-02-11T06:29:45;101535.03;;;2.78;100.00
73860;BME280;62197;51.632;13.700;2023-02-11T06:32:11;101537.38;;;2.73;100.00
73860;BME280;62197;51.632;13.700;2023-02-11T06:34:37;101540.97;;;2.73;100.00
73860;BME280;62197;51.632;13.700;2023-02-11T06:37:02;101537.06;;;2.76;100.00
73860;BME280;62197;51.632;13.700;2023-02-11T06:39:28;101528.19;;;2.74;100.00
73860;BME280;62197;51.632;13.700;2023-02-11T06:41:53;101534.16;;;2.78;100.00
73860;BME280;62197;51.632;13.700;2023-02-11T06:44:18;101529.75;;;2.77;100.00
73860;BME280;62197;51.632;13.700;2023-02-11T06:46:44;101536.38;;;2.74;100.00
73860;BME280;62197;51.632;13.700;2023-02-11T06:49:09;101531.59;;;2.76;100.00
73860;BME280;62197;51.632;13.700;2023-02-11T06:51:35;101543.16;;;2.70;100.00
73860;BME280;62197;51.632;13.700;2023-02-11T06:54:00;101545.94;;;2.78;100.00
73860;BME280;62197;51.632;13.700;2023-02-11T06:56:26;101554.41;;;2.75;100.00
73860;BME280;62197;51.632;13.700;2023-02-11T06:58:55;101551.56;;;2.77;100.00
73860;BME280;62197;51.632;13.700;2023-02-11T07:01:22;101545.78;;;2.88;100.00
73860;BME280;62197;51.632;13.700;2023-02-11T07:03:48;101548.34;;;2.89;100.00
73860;BME280;62197;51.632;13.700;2023-02-11T07:06:17;101560.63;;;2.93;100.00
73860;BME280;62197;51.632;13.700;2023-02-11T07:08:43;101560.28;;;2.96;100.00
73860;BME280;62197;51.632;13.700;2023-02-11T07:11:18;101559.97;;;2.99;100.00
73860;BME280;62197;51.632;13.700;2023-02-11T07:13:44;101556.41;;;3.07;100.00
73860;BME280;62197;51.632;13.700;2023-02-11T07:16:12;101547.53;;;3.05;100.00
73860;BME280;62197;51.632;13.700;2023-02-11T07:18:38;101558.63;;;3.11;100.00
73860;BME280;62197;51.632;13.700;2023-02-11T07:21:07;101554.00;;;3.12;99.82
73860;BME280;62197;51.632;13.700;2023-02-11T07:23:34;101555.91;;;3.11;100.00
73860;BME280;62197;51.632;13.700;2023-02-11T07:26:04;101559.66;;;3.18;100.00
73860;BME280;62197;51.632;13.700;2023-02-11T07:28:30;101559.66;;;3.18;100.00
73860;BME280;62197;51.632;13.700;2023-02-11T07:30:55;101554.72;;;3.22;99.85
73860;BME280;62197;51.632;13.700;2023-02-11T07:33:20;101576.91;;;3.27;99.91
73860;BME280;62197;51.632;13.700;2023-02-11T07:35:46;101571.97;;;3.30;99.60
73860;BME280;62197;51.632;13.700;2023-02-11T07:38:11;101569.56;;;3.27;100.00
73860;BME280;62197;51.632;13.700;2023-02-11T07:40:36;101551.16;;;3.29;100.00
73860;BME280;62197;51.632;13.700;2023-02-11T07:43:02;101564.09;;;3.27;99.64
73860;BME280;62197;51.632;13.700;2023-02-11T07:45:27;101554.53;;;3.23;100.00
73860;BME280;62197;51.632;13.700;2023-02-11T07:47:52;101559.50;;;3.28;100.00
73860;BME280;62197;51.632;13.700;2023-02-11T07:50:18;101549.09;;;3.31;100.00
73860;BME280;62197;51.632;13.700;2023-02-11T07:52:43;101561.41;;;3.35;100.00
73860;BME280;62197;51.632;13.700;2023-02-11T07:55:08;101549.47;;;3.36;100.00
73860;BME280;62197;51.632;13.700;2023-02-11T07:57:34;101554.94;;;3.36;100.00
73860;BME280;62197;51.632;13.700;2023-02-11T07:59:59;101548.13;;;3.40;100.00
73860;BME280;62197;51.632;13.700;2023-02-11T08:02:25;101551.34;;;3.44;99.68
73860;BME280;62197;51.632;13.700;2023-02-11T08:04:50;101535.66;;;3.38;100.00
73860;BME280;62197;51.632;13.700;2023-02-11T08:07:16;101543.16;;;3.44;100.00
73860;BME280;62197;51.632;13.700;2023-02-11T08:09:42;101528.69;;;3.51;99.72
73860;BME280;62197;51.632;13.700;2023-02-11T08:12:07;101535.00;;;3.52;99.28
73860;BME280;62197;51.632;13.700;2023-02-11T08:14:32;101519.28;;;3.46;99.39
73860;BME280;62197;51.632;13.700;2023-02-11T08:16:58;101527.81;;;3.51;99.59
73860;BME280;62197;51.632;13.700;2023-02-11T08:19:23;101528.69;;;3.51;99.69
73860;BME280;62197;51.632;13.700;2023-02-11T08:21:49;101538.22;;;3.55;99.07
73860;BME280;62197;51.632;13.700;2023-02-11T08:24:14;101538.41;;;3.54;99.46
73860;BME280;62197;51.632;13.700;2023-02-11T08:26:41;101540.59;;;3.58;99.15
73860;BME280;62197;51.632;13.700;2023-02-11T08:29:09;101541.28;;;3.60;98.86
73860;BME280;62197;51.632;13.700;2023-02-11T08:31:38;101550.84;;;3.56;99.26
73860;BME280;62197;51.632;13.700;2023-02-11T08:34:04;101547.09;;;3.65;98.71
73860;BME280;62197;51.632;13.700;2023-02-11T08:36:32;101551.88;;;3.72;98.71
73860;BME280;62197;51.632;13.700;2023-02-11T08:38:59;101548.13;;;3.73;98.20
73860;BME280;62197;51.632;13.700;2023-02-11T08:41:27;101549.13;;;3.80;98.13
73860;BME280;62197;51.632;13.700;2023-02-11T08:43:52;101552.53;;;3.82;97.84
73860;BME280;62197;51.632;13.700;2023-02-11T08:46:19;101549.81;;;3.82;97.71
73860;BME280;62197;51.632;13.700;2023-02-11T08:48:46;101555.94;;;3.84;98.80
73860;BME280;62197;51.632;13.700;2023-02-11T08:51:23;101564.81;;;3.78;98.37
73860;BME280;62197;51.632;13.700;2023-02-11T08:53:50;101579.84;;;3.82;99.18
73860;BME280;62197;51.632;13.700;2023-02-11T08:56:16;101557.69;;;3.85;98.56
73860;BME280;62197;51.632;13.700;2023-02-11T08:58:42;101564.66;;;3.87;98.21
73860;BME280;62197;51.632;13.700;2023-02-11T09:01:13;101583.63;;;3.89;98.59
73860;BME280;62197;51.632;13.700;2023-02-11T09:03:38;101545.88;;;3.92;98.01
73860;BME280;62197;51.632;13.700;2023-02-11T09:06:06;101580.19;;;3.95;98.14
73860;BME280;62197;51.632;13.700;2023-02-11T09:08:39;101579.16;;;3.96;98.58
73860;BME280;62197;51.632;13.700;2023-02-11T09:11:06;101583.88;;;4.26;98.67
73860;BME280;62197;51.632;13.700;2023-02-11T09:13:31;101588.22;;;4.67;97.20
73860;BME280;62197;51.632;13.700;2023-02-11T09:15:58;101571.88;;;4.51;96.17
73860;BME280;62197;51.632;13.700;2023-02-11T09:18:24;101584.03;;;4.40;96.43
73860;BME280;62197;51.632;13.700;2023-02-11T09:20:49;101583.56;;;4.29;97.27
73860;BME280;62197;51.632;13.700;2023-02-11T09:23:15;101578.59;;;4.32;97.90
73860;BME280;62197;51.632;13.700;2023-02-11T09:25:40;101568.84;;;4.30;98.00
73860;BME280;62197;51.632;13.700;2023-02-11T09:28:06;101552.13;;;4.33;97.53
73860;BME280;62197;51.632;13.700;2023-02-11T09:30:31;101569.19;;;4.35;98.08
73860;BME280;62197;51.632;13.700;2023-02-11T09:32:56;101561.47;;;4.46;97.37
73860;BME280;62197;51.632;13.700;2023-02-11T09:35:22;101567.81;;;4.47;97.17
73860;BME280;62197;51.632;13.700;2023-02-11T09:37:47;101569.13;;;4.51;96.81
73860;BME280;62197;51.632;13.700;2023-02-11T09:40:14;101551.91;;;4.50;97.45
73860;BME280;62197;51.632;13.700;2023-02-11T09:43:04;101553.06;;;4.56;97.33
73860;BME280;62197;51.632;13.700;2023-02-11T09:45:30;101557.84;;;4.62;96.52
73860;BME280;62197;51.632;13.700;2023-02-11T09:48:03;101550.31;;;4.64;97.02
73860;BME280;62197;51.632;13.700;2023-02-11T09:50:39;101576.31;;;4.60;96.44
73860;BME280;62197;51.632;13.700;2023-02-11T09:53:16;101532.13;;;4.79;95.96
73860;BME280;62197;51.632;13.700;2023-02-11T09:55:45;101539.97;;;4.82;95.57
73860;BME280;62197;51.632;13.700;2023-02-11T09:58:15;101542.22;;;4.79;95.83
73860;BME280;62197;51.632;13.700;2023-02-11T10:00:46;101520.47;;;4.85;95.31
73860;BME280;62197;51.632;13.700;2023-02-11T10:03:21;101538.50;;;5.02;95.33
73860;BME280;62197;51.632;13.700;2023-02-11T10:09:09;101549.84;;;5.22;93.83
73860;BME280;62197;51.632;13.700;2023-02-11T10:11:51;101564.31;;;5.30;93.50
73860;BME280;62197;51.632;13.700;2023-02-11T10:17:39;101558.97;;;5.14;94.78
73860;BME280;62197;51.632;13.700;2023-02-11T10:20:20;101557.56;;;5.18;94.11
73860;BME280;62197;51.632;13.700;2023-02-11T10:22:51;101557.13;;;5.07;94.39
73860;BME280;62197;51.632;13.700;2023-02-11T10:25:26;101538.81;;;5.07;94.56
73860;BME280;62197;51.632;13.700;2023-02-11T10:27:54;101564.53;;;5.21;95.01
73860;BME280;62197;51.632;13.700;2023-02-11T10:30:23;101555.41;;;5.28;94.03
73860;BME280;62197;51.632;13.700;2023-02-11T10:32:56;101569.28;;;5.04;94.71
73860;BME280;62197;51.632;13.700;2023-02-11T10:35:23;101554.19;;;5.08;95.50
73860;BME280;62197;51.632;13.700;2023-02-11T10:37:50;101526.59;;;4.95;95.83
73860;BME280;62197;51.632;13.700;2023-02-11T10:40:17;101538.19;;;4.97;96.24
73860;BME280;62197;51.632;13.700;2023-02-11T10:42:46;101545.50;;;5.05;95.90
73860;BME280;62197;51.632;13.700;2023-02-11T10:45:40;101549.94;;;5.06;95.59
73860;BME280;62197;51.632;13.700;2023-02-11T10:53:35;101558.31;;;5.04;96.84
73860;BME280;62197;51.632;13.700;2023-02-11T10:56:01;101546.00;;;5.08;96.43
73860;BME280;62197;51.632;13.700;2023-02-11T10:59:00;101559.28;;;5.11;97.38
73860;BME280;62197;51.632;13.700;2023-02-11T11:01:46;101565.78;;;5.18;95.62
73860;BME280;62197;51.632;13.700;2023-02-11T11:04:30;101558.63;;;5.09;96.63
73860;BME280;62197;51.632;13.700;2023-02-11T11:07:19;101554.16;;;5.16;96.20
73860;BME280;62197;51.632;13.700;2023-02-11T11:09:51;101548.88;;;5.15;96.39
73860;BME280;62197;51.632;13.700;2023-02-11T11:14:56;101541.16;;;5.18;96.44
73860;BME280;62197;51.632;13.700;2023-02-11T11:17:22;101543.75;;;5.34;96.48
73860;BME280;62197;51.632;13.700;2023-02-11T11:19:48;101547.06;;;5.53;95.00
73860;BME280;62197;51.632;13.700;2023-02-11T11:22:20;101540.59;;;5.23;96.41
73860;BME280;62197;51.632;13.700;2023-02-11T11:24:47;101547.63;;;5.17;97.28
73860;BME280;62197;51.632;13.700;2023-02-11T11:27:23;101560.66;;;5.15;97.57
73860;BME280;62197;51.632;13.700;2023-02-11T11:29:54;101546.91;;;5.23;97.04
73860;BME280;62197;51.632;13.700;2023-02-11T11:32:26;101553.75;;;5.27;98.12
73860;BME280;62197;51.632;13.700;2023-02-11T11:34:55;101556.66;;;5.71;96.07
73860;BME280;62197;51.632;13.700;2023-02-11T11:37:32;101551.00;;;5.27;97.24
73860;BME280;62197;51.632;13.700;2023-02-11T11:42:39;101554.66;;;5.20;98.85
73860;BME280;62197;51.632;13.700;2023-02-11T11:48:07;101550.56;;;5.38;98.40
73860;BME280;62197;51.632;13.700;2023-02-11T11:50:49;101547.84;;;5.61;97.91
73860;BME280;62197;51.632;13.700;2023-02-11T11:53:59;101536.94;;;5.30;99.24
73860;BME280;62197;51.632;13.700;2023-02-11T11:56:31;101526.38;;;5.27;99.59
73860;BME280;62197;51.632;13.700;2023-02-11T11:59:00;101532.88;;;5.26;100.00
73860;BME280;62197;51.632;13.700;2023-02-11T12:01:50;101545.66;;;5.57;99.15
73860;BME280;62197;51.632;13.700;2023-02-11T12:05:02;101554.72;;;5.34;99.95
73860;BME280;62197;51.632;13.700;2023-02-11T12:12:51;101524.69;;;5.26;100.00
73860;BME280;62197;51.632;13.700;2023-02-11T12:15:33;101535.97;;;5.23;100.00
73860;BME280;62197;51.632;13.700;2023-02-11T12:18:12;101529.78;;;5.29;100.00
73860;BME280;62197;51.632;13.700;2023-02-11T12:23:47;101548.25;;;5.27;100.00
73860;BME280;62197;51.632;13.700;2023-02-11T12:26:19;101550.81;;;5.29;100.00
73860;BME280;62197;51.632;13.700;2023-02-11T12:29:07;101551.38;;;5.24;100.00
73860;BME280;62197;51.632;13.700;2023-02-11T12:31:47;101548.63;;;5.24;100.00
73860;BME280;62197;51.632;13.700;2023-02-11T12:37:27;101540.78;;;5.21;100.00
73860;BME280;62197;51.632;13.700;2023-02-11T12:42:49;101551.28;;;5.32;100.00
73860;BME280;62197;51.632;13.700;2023-02-11T12:45:44;101547.16;;;5.36;100.00
73860;BME280;62197;51.632;13.700;2023-02-11T12:48:17;101553.63;;;5.43;100.00
73860;BME280;62197;51.632;13.700;2023-02-11T12:56:49;101552.34;;;5.31;100.00
73860;BME280;62197;51.632;13.700;2023-02-11T12:59:27;101542.41;;;5.30;100.00
73860;BME280;62197;51.632;13.700;2023-02-11T13:01:55;101530.25;;;5.33;100.00
73860;BME280;62197;51.632;13.700;2023-02-11T13:04:34;101528.53;;;5.40;100.00
73860;BME280;62197;51.632;13.700;2023-02-11T13:07:08;101523.94;;;5.32;100.00
73860;BME280;62197;51.632;13.700;2023-02-11T13:09:45;101527.19;;;5.36;100.00
73860;BME280;62197;51.632;13.700;2023-02-11T13:12:13;101527.34;;;5.34;100.00
73860;BME280;62197;51.632;13.700;2023-02-11T13:15:03;101521.63;;;5.44;100.00
73860;BME280;62197;51.632;13.700;2023-02-11T13:17:47;101524.06;;;5.39;100.00
73860;BME280;62197;51.632;13.700;2023-02-11T13:23:18;101537.06;;;5.60;100.00
73860;BME280;62197;51.632;13.700;2023-02-11T13:28:39;101532.75;;;5.42;100.00
73860;BME280;62197;51.632;13.700;2023-02-11T13:31:08;101526.25;;;5.43;100.00
73860;BME280;62197;51.632;13.700;2023-02-11T13:33:37;101513.97;;;5.39;100.00
73860;BME280;62197;51.632;13.700;2023-02-11T13:36:19;101513.50;;;5.36;100.00
73860;BME280;62197;51.632;13.700;2023-02-11T13:38:52;101524.59;;;5.34;100.00
73860;BME280;62197;51.632;13.700;2023-02-11T13:41:23;101524.25;;;5.37;100.00
73860;BME280;62197;51.632;13.700;2023-02-11T13:43:58;101532.28;;;5.39;100.00
73860;BME280;62197;51.632;13.700;2023-02-11T13:46:25;101517.72;;;5.38;100.00
73860;BME280;62197;51.632;13.700;2023-02-11T13:48:52;101512.91;;;5.40;100.00
73860;BME280;62197;51.632;13.700;2023-02-11T13:51:34;101517.44;;;5.33;100.00
73860;BME280;62197;51.632;13.700;2023-02-11T13:54:01;101513.34;;;5.29;100.00